Time;durP1;ratioP1;P1;durP2;ratioP2;P2;SDS_P1;SDS_P2;PMS_P1;PMS_P2;Temp;Humidity;BMP_temperature;BMP_pressure;BME280_temperature;BME280_humidity;BME280_pressure;Samples;Min_cycle;Max_cycle;Signal;HPM_P1;HPM_P2
2023/04/10 00:01:56;;;;;;;;;;;11.50;80.10;;;;;;8403290;28;19951;-77
2023/04/10 00:05:57;;;;;;;;;;;11.40;80.30;;;;;;8391749;28;19991;-77
2023/04/10 00:20:07;;;;;;;;;;;11.20;81.00;;;;;;8385114;28;19923;-77
2023/04/10 00:24:09;;;;;;;;;;;11.20;81.40;;;;;;8388074;28;19933;-77
2023/04/10 00:28:10;;;;;;;;;;;11.10;80.90;;;;;;8391705;28;20296;-77
2023/04/10 00:32:12;;;;;;;;;;;11.10;80.50;;;;;;8417473;27;19965;-77
2023/04/10 00:36:15;;;;;;;;;;;11.00;81.60;;;;;;8389696;28;19932;-77
2023/04/10 00:40:16;;;;;;;;;;;10.90;80.80;;;;;;8388804;28;19932;-76
2023/04/10 00:44:18;;;;;;;;;;;10.90;82.90;;;;;;8385398;28;19924;-77
2023/04/10 00:48:20;;;;;;;;;;;10.80;81.50;;;;;;8393240;28;19970;-77
2023/04/10 00:52:22;;;;;;;;;;;10.80;82.80;;;;;;8386038;28;20383;-77
2023/04/10 00:56:24;;;;;;;;;;;10.80;81.60;;;;;;8382525;28;20496;-77
2023/04/10 01:00:25;;;;;;;;;;;10.70;81.60;;;;;;8383256;28;20036;-77
2023/04/10 01:04:29;;;;;;;;;;;10.70;80.60;;;;;;8386325;28;20369;-77
2023/04/10 01:09:06;;;;;;;;;;;10.70;82.10;;;;;;8385983;28;19939;-77
2023/04/10 01:13:21;;;;;;;;;;;10.60;80.80;;;;;;8316576;28;20023;-77
2023/04/10 01:17:28;;;;;;;;;;;10.60;80.20;;;;;;8406384;28;19933;-77
2023/04/10 01:21:30;;;;;;;;;;;10.60;81.10;;;;;;8402757;28;19924;-77
2023/04/10 01:25:38;;;;;;;;;;;10.50;81.40;;;;;;8391408;28;19934;-77
2023/04/10 01:29:51;;;;;;;;;;;10.50;82.00;;;;;;8382044;28;19932;-77
2023/04/10 01:33:58;;;;;;;;;;;10.50;82.60;;;;;;8391422;28;19929;-77
2023/04/10 01:38:01;;;;;;;;;;;10.40;83.10;;;;;;8397795;28;19929;-77
2023/04/10 01:42:04;;;;;;;;;;;10.40;83.40;;;;;;8378793;28;19932;-77
2023/04/10 01:46:06;;;;;;;;;;;10.40;83.10;;;;;;8381765;28;19944;-77
2023/04/10 01:50:08;;;;;;;;;;;10.40;83.80;;;;;;8396524;28;19932;-77
2023/04/10 01:54:10;;;;;;;;;;;10.40;81.90;;;;;;8394577;28;20380;-77
2023/04/10 01:58:12;;;;;;;;;;;10.40;82.80;;;;;;8383235;28;19924;-77
2023/04/10 02:02:14;;;;;;;;;;;10.40;82.00;;;;;;8382698;28;19931;-77
2023/04/10 02:06:42;;;;;;;;;;;10.40;83.70;;;;;;8377131;28;19968;-76
2023/04/10 02:10:51;;;;;;;;;;;10.30;83.20;;;;;;8384756;28;20392;-77
2023/04/10 02:14:55;;;;;;;;;;;10.30;83.40;;;;;;8386091;28;19928;-77
2023/04/10 02:18:57;;;;;;;;;;;10.30;86.50;;;;;;8392803;28;20406;-77
2023/04/10 02:23:02;;;;;;;;;;;10.30;84.80;;;;;;8389575;28;20023;-77
2023/04/10 02:27:04;;;;;;;;;;;10.30;83.50;;;;;;8388573;28;19931;-77
2023/04/10 02:31:06;;;;;;;;;;;10.30;84.80;;;;;;8393331;28;20716;-77
2023/04/10 02:35:08;;;;;;;;;;;10.30;82.30;;;;;;8388361;28;19932;-77
2023/04/10 02:39:09;;;;;;;;;;;10.20;81.10;;;;;;8393976;28;20014;-77
2023/04/10 02:43:11;;;;;;;;;;;10.20;81.90;;;;;;8391948;28;19972;-77
2023/04/10 02:47:13;;;;;;;;;;;10.20;84.20;;;;;;8395526;28;19924;-77
2023/04/10 02:51:14;;;;;;;;;;;10.20;84.90;;;;;;8390884;28;19935;-77
2023/04/10 02:55:16;;;;;;;;;;;10.20;83.40;;;;;;8382191;28;19951;-77
2023/04/10 02:59:18;;;;;;;;;;;10.20;84.90;;;;;;8393025;28;19948;-77
2023/04/10 03:03:20;;;;;;;;;;;10.10;83.10;;;;;;8417052;27;19988;-77
2023/04/10 03:07:21;;;;;;;;;;;10.10;82.70;;;;;;8423315;27;19932;-77
2023/04/10 03:11:23;;;;;;;;;;;10.10;81.20;;;;;;8396909;28;19976;-76
2023/04/10 03:15:25;;;;;;;;;;;10.10;83.60;;;;;;8393471;28;19999;-77
2023/04/10 03:19:27;;;;;;;;;;;10.00;83.10;;;;;;8382306;28;19947;-77
2023/04/10 03:23:28;;;;;;;;;;;10.00;83.80;;;;;;8391190;28;20398;-77
2023/04/10 03:27:32;;;;;;;;;;;10.00;82.40;;;;;;8388150;28;19938;-77
2023/04/10 03:31:33;;;;;;;;;;;9.90;83.90;;;;;;8386423;28;19925;-77
2023/04/10 03:45:43;;;;;;;;;;;9.60;85.40;;;;;;8389387;28;19946;-77
2023/04/10 03:54:48;;;;;;;;;;;9.40;85.80;;;;;;8387668;28;20275;-77
2023/04/10 03:58:49;;;;;;;;;;;9.30;86.40;;;;;;8387510;28;19924;-77
2023/04/10 04:02:52;;;;;;;;;;;9.30;87.50;;;;;;8390204;28;19927;-77
2023/04/10 04:06:54;;;;;;;;;;;9.20;89.50;;;;;;8385679;28;20308;-77
2023/04/10 04:10:56;;;;;;;;;;;9.20;89.40;;;;;;8396882;28;19993;-77
2023/04/10 04:14:57;;;;;;;;;;;9.20;89.10;;;;;;8387380;28;20032;-77
2023/04/10 04:18:59;;;;;;;;;;;9.10;89.20;;;;;;8385018;28;19968;-77
2023/04/10 04:23:01;;;;;;;;;;;9.10;90.00;;;;;;8385423;28;20230;-77
2023/04/10 04:32:12;;;;;;;;;;;9.10;90.30;;;;;;8395001;28;19923;-76
2023/04/10 04:36:14;;;;;;;;;;;9.10;90.00;;;;;;8380604;28;19928;-77
2023/04/10 04:40:15;;;;;;;;;;;9.10;89.50;;;;;;8378723;28;20301;-77
2023/04/10 04:44:18;;;;;;;;;;;9.10;90.50;;;;;;8379261;28;19924;-77
2023/04/10 04:48:20;;;;;;;;;;;9.10;90.20;;;;;;8390030;28;19932;-77
2023/04/10 04:52:22;;;;;;;;;;;9.00;90.70;;;;;;8388774;28;19932;-77
2023/04/10 04:56:24;;;;;;;;;;;9.00;91.70;;;;;;8390310;28;19939;-77
2023/04/10 05:00:26;;;;;;;;;;;8.90;90.60;;;;;;8384995;28;19959;-77
2023/04/10 05:04:27;;;;;;;;;;;9.00;90.70;;;;;;8381291;28;20360;-77
2023/04/10 05:08:29;;;;;;;;;;;8.90;92.20;;;;;;8388625;28;19928;-77
2023/04/10 05:12:31;;;;;;;;;;;8.90;91.70;;;;;;8385867;28;19971;-77
2023/04/10 05:16:33;;;;;;;;;;;8.80;91.40;;;;;;8392247;28;19991;-77
2023/04/10 05:20:35;;;;;;;;;;;8.80;91.50;;;;;;8385826;28;19965;-77
2023/04/10 05:24:36;;;;;;;;;;;8.80;92.00;;;;;;8385879;28;20007;-77
2023/04/10 05:28:38;;;;;;;;;;;8.80;91.80;;;;;;8401749;28;20019;-77
2023/04/10 05:32:39;;;;;;;;;;;8.80;91.50;;;;;;8405579;28;19955;-77
2023/04/10 05:36:41;;;;;;;;;;;8.80;91.00;;;;;;8413312;28;19933;-77
2023/04/10 05:40:44;;;;;;;;;;;8.90;91.70;;;;;;8401749;28;20281;-77
2023/04/10 05:44:46;;;;;;;;;;;8.90;91.50;;;;;;8400317;28;20462;-77
2023/04/10 05:48:47;;;;;;;;;;;8.90;91.00;;;;;;8398903;28;19940;-77
2023/04/10 05:52:49;;;;;;;;;;;9.00;91.50;;;;;;8416516;28;20390;-77
2023/04/10 05:56:51;;;;;;;;;;;9.00;91.50;;;;;;8395702;28;19928;-77
2023/04/10 06:00:53;;;;;;;;;;;9.10;91.50;;;;;;8395027;28;19935;-76
2023/04/10 06:04:54;;;;;;;;;;;9.10;91.20;;;;;;8393154;28;19969;-77
2023/04/10 06:08:56;;;;;;;;;;;9.20;91.60;;;;;;8393483;28;19947;-76
2023/04/10 06:12:58;;;;;;;;;;;9.30;92.00;;;;;;8399744;28;19931;-76
2023/04/10 06:16:59;;;;;;;;;;;9.30;91.60;;;;;;8384867;28;20352;-76
2023/04/10 06:21:01;;;;;;;;;;;9.40;91.90;;;;;;8397138;28;20024;-76
2023/04/10 06:25:04;;;;;;;;;;;9.40;91.50;;;;;;8388562;28;19990;-76
2023/04/10 06:29:05;;;;;;;;;;;9.50;91.50;;;;;;8378825;28;20016;-76
2023/04/10 06:33:07;;;;;;;;;;;9.50;91.10;;;;;;8385637;28;19986;-76
2023/04/10 06:37:09;;;;;;;;;;;9.60;92.70;;;;;;8412758;28;20395;-76
2023/04/10 06:41:11;;;;;;;;;;;9.70;92.10;;;;;;8387484;28;19924;-76
2023/04/10 06:45:12;;;;;;;;;;;9.70;91.10;;;;;;8388481;28;19924;-76
2023/04/10 06:49:14;;;;;;;;;;;9.80;90.70;;;;;;8392488;28;19940;-77
2023/04/10 06:53:15;;;;;;;;;;;9.90;93.10;;;;;;8378911;28;19925;-76
2023/04/10 06:57:17;;;;;;;;;;;9.90;91.60;;;;;;8389209;28;19970;-77
2023/04/10 07:01:19;;;;;;;;;;;10.00;90.60;;;;;;8402216;28;20014;-77
2023/04/10 07:05:21;;;;;;;;;;;10.10;89.00;;;;;;8383758;28;20334;-77
2023/04/10 07:09:25;;;;;;;;;;;10.20;89.60;;;;;;8379914;28;20352;-77
2023/04/10 07:13:26;;;;;;;;;;;10.30;90.90;;;;;;8397233;28;19963;-77
2023/04/10 07:17:28;;;;;;;;;;;10.40;91.40;;;;;;8386108;28;22158;-77
2023/04/10 07:21:31;;;;;;;;;;;10.50;90.10;;;;;;8386342;28;19931;-77
2023/04/10 07:25:33;;;;;;;;;;;10.70;90.30;;;;;;8394061;28;19971;-76
2023/04/10 07:29:35;;;;;;;;;;;10.80;90.80;;;;;;8397345;28;20406;-77
2023/04/10 07:33:37;;;;;;;;;;;11.00;91.10;;;;;;8391528;28;19931;-76
2023/04/10 07:37:38;;;;;;;;;;;11.10;90.70;;;;;;8396237;28;19924;-77
2023/04/10 07:41:40;;;;;;;;;;;11.30;91.90;;;;;;8383325;28;20030;-77
2023/04/10 07:45:42;;;;;;;;;;;11.40;91.80;;;;;;8397697;28;19987;-77
2023/04/10 07:49:43;;;;;;;;;;;11.70;92.40;;;;;;8380013;28;19925;-77
2023/04/10 07:53:45;;;;;;;;;;;11.80;92.40;;;;;;8383402;28;19924;-77
2023/04/10 07:57:47;;;;;;;;;;;12.00;91.80;;;;;;8399507;28;19967;-77
2023/04/10 08:01:48;;;;;;;;;;;12.00;91.70;;;;;;8394570;28;19931;-77
2023/04/10 08:05:50;;;;;;;;;;;12.00;91.30;;;;;;8398625;28;20019;-77
2023/04/10 08:09:52;;;;;;;;;;;12.00;92.00;;;;;;8384197;28;19954;-76
2023/04/10 08:13:55;;;;;;;;;;;12.00;91.30;;;;;;8389868;28;19967;-77
2023/04/10 08:17:57;;;;;;;;;;;12.10;91.10;;;;;;8392081;28;19932;-77
2023/04/10 08:21:58;;;;;;;;;;;12.10;91.70;;;;;;8388165;28;19929;-77
2023/04/10 08:26:00;;;;;;;;;;;12.20;91.70;;;;;;8375341;28;20348;-77
2023/04/10 08:30:02;;;;;;;;;;;12.30;91.80;;;;;;8390203;28;19928;-76
2023/04/10 08:34:03;;;;;;;;;;;12.40;92.00;;;;;;8394429;28;20020;-76
2023/04/10 08:38:05;;;;;;;;;;;12.50;91.80;;;;;;8382026;28;19932;-76
2023/04/10 08:42:10;;;;;;;;;;;12.60;92.00;;;;;;8389357;28;19924;-77
2023/04/10 08:46:12;;;;;;;;;;;12.60;92.00;;;;;;8385138;28;19925;-76
2023/04/10 08:50:16;;;;;;;;;;;12.50;91.60;;;;;;8379640;28;19928;-77
2023/04/10 08:54:19;;;;;;;;;;;12.50;91.70;;;;;;8376339;28;19936;-77
2023/04/10 08:58:21;;;;;;;;;;;12.50;92.40;;;;;;8377661;28;19932;-76
2023/04/10 09:02:22;;;;;;;;;;;12.40;91.60;;;;;;8392058;28;20304;-76
2023/04/10 09:06:24;;;;;;;;;;;12.50;92.00;;;;;;8404455;28;19936;-76
2023/04/10 09:10:26;;;;;;;;;;;12.50;92.10;;;;;;8388794;28;20344;-77
2023/04/10 09:14:29;;;;;;;;;;;12.60;91.90;;;;;;8395777;28;19927;-77
2023/04/10 09:18:40;;;;;;;;;;;12.60;92.30;;;;;;8386684;28;20016;-77
2023/04/10 09:22:41;;;;;;;;;;;12.60;91.90;;;;;;8382981;28;19925;-76
2023/04/10 09:26:43;;;;;;;;;;;12.70;92.00;;;;;;8384098;28;19951;-76
2023/04/10 09:30:45;;;;;;;;;;;12.80;92.60;;;;;;8387184;28;19991;-77
2023/04/10 09:34:55;;;;;;;;;;;12.90;92.80;;;;;;8389031;28;19935;-76
2023/04/10 09:38:57;;;;;;;;;;;13.00;92.10;;;;;;8386019;28;19971;-77
2023/04/10 09:42:58;;;;;;;;;;;13.00;92.90;;;;;;8393226;28;19968;-77
2023/04/10 09:47:12;;;;;;;;;;;13.10;92.80;;;;;;8383142;28;19971;-76
2023/04/10 09:51:27;;;;;;;;;;;13.20;92.70;;;;;;8382256;28;19931;-76
2023/04/10 09:55:29;;;;;;;;;;;13.30;93.30;;;;;;8379833;28;19935;-77
2023/04/10 09:59:31;;;;;;;;;;;13.50;92.60;;;;;;8379421;28;19928;-76
2023/04/10 10:03:32;;;;;;;;;;;13.60;93.10;;;;;;8382179;28;19943;-76
2023/04/10 10:07:37;;;;;;;;;;;13.70;93.10;;;;;;8398343;28;20175;-77
2023/04/10 10:11:39;;;;;;;;;;;13.80;93.00;;;;;;8384858;28;19962;-77
2023/04/10 10:15:43;;;;;;;;;;;13.90;93.00;;;;;;8385651;28;20372;-76
2023/04/10 10:20:00;;;;;;;;;;;14.00;93.00;;;;;;8387100;28;19924;-76
2023/04/10 10:24:05;;;;;;;;;;;14.10;93.30;;;;;;8391729;28;19963;-76
2023/04/10 10:28:11;;;;;;;;;;;14.20;93.30;;;;;;8379773;28;20021;-76
2023/04/10 10:32:13;;;;;;;;;;;14.30;93.20;;;;;;8380386;28;20284;-76
2023/04/10 10:36:16;;;;;;;;;;;14.50;93.30;;;;;;8387249;28;20042;-76
2023/04/10 10:40:21;;;;;;;;;;;14.60;93.60;;;;;;8378743;28;19924;-75
2023/04/10 10:44:52;;;;;;;;;;;14.80;93.70;;;;;;8392782;28;19929;-76
2023/04/10 10:48:55;;;;;;;;;;;14.90;93.70;;;;;;8373053;28;20234;-77
2023/04/10 10:52:57;;;;;;;;;;;15.00;93.90;;;;;;8386504;28;19931;-76
2023/04/10 10:56:59;;;;;;;;;;;15.20;94.20;;;;;;8385397;28;19929;-76
2023/04/10 11:01:05;;;;;;;;;;;15.40;94.30;;;;;;8375891;28;19963;-75
2023/04/10 11:05:09;;;;;;;;;;;15.50;94.40;;;;;;8372668;28;19963;-76
2023/04/10 11:09:30;;;;;;;;;;;15.70;94.90;;;;;;8381057;28;19936;-76
2023/04/10 11:13:33;;;;;;;;;;;15.90;94.80;;;;;;8391028;28;19931;-76
2023/04/10 11:17:50;;;;;;;;;;;15.90;94.20;;;;;;8388730;28;19925;-75
2023/04/10 11:22:06;;;;;;;;;;;15.90;95.00;;;;;;8426606;27;19985;-76
2023/04/10 11:26:07;;;;;;;;;;;16.10;94.20;;;;;;8410834;28;19924;-76
2023/04/10 11:30:25;;;;;;;;;;;16.20;94.50;;;;;;8399569;28;19928;-76
2023/04/10 11:34:27;;;;;;;;;;;16.30;94.50;;;;;;8394119;28;19968;-76
2023/04/10 11:38:29;;;;;;;;;;;16.40;94.80;;;;;;8405600;28;19933;-76
2023/04/10 11:42:31;;;;;;;;;;;16.50;95.00;;;;;;8375721;28;19972;-76
2023/04/10 11:46:45;;;;;;;;;;;16.60;94.70;;;;;;8383212;28;19933;-76
2023/04/10 11:50:47;;;;;;;;;;;16.70;95.10;;;;;;8362621;28;20015;-76
2023/04/10 11:54:48;;;;;;;;;;;16.80;94.80;;;;;;8367398;28;19931;-77
2023/04/10 11:58:52;;;;;;;;;;;16.90;94.60;;;;;;8364527;28;19994;-76
2023/04/10 12:02:55;;;;;;;;;;;17.00;94.40;;;;;;8370927;28;19925;-76
2023/04/10 12:06:57;;;;;;;;;;;16.90;94.90;;;;;;8396252;27;20387;-76
2023/04/10 12:10:59;;;;;;;;;;;17.00;94.40;;;;;;8370060;28;19950;-76
2023/04/10 12:15:01;;;;;;;;;;;17.10;93.60;;;;;;8368830;28;20363;-76
2023/04/10 12:19:02;;;;;;;;;;;17.10;94.60;;;;;;8402485;28;19925;-76
2023/04/10 12:23:04;;;;;;;;;;;16.90;93.40;;;;;;8371355;28;19939;-75
2023/04/10 12:27:06;;;;;;;;;;;16.70;93.50;;;;;;8368288;28;19931;-75
2023/04/10 12:31:08;;;;;;;;;;;16.70;93.90;;;;;;8379565;28;21987;-76
2023/04/10 12:35:09;;;;;;;;;;;16.70;93.60;;;;;;8365383;28;20380;-76
2023/04/10 12:39:21;;;;;;;;;;;16.70;93.70;;;;;;8370027;28;19924;-76
2023/04/10 12:43:33;;;;;;;;;;;16.60;93.30;;;;;;8365452;28;20431;-76
2023/04/10 12:47:45;;;;;;;;;;;16.50;93.50;;;;;;8401668;28;19943;-76
2023/04/10 12:51:50;;;;;;;;;;;16.30;93.40;;;;;;8364819;28;19954;-76
2023/04/10 12:55:58;;;;;;;;;;;16.20;93.30;;;;;;8362310;28;20349;-76
2023/04/10 13:00:02;;;;;;;;;;;16.10;93.70;;;;;;8384794;28;19931;-75
2023/04/10 13:04:03;;;;;;;;;;;16.10;93.60;;;;;;8385708;28;19928;-76
2023/04/10 13:08:05;;;;;;;;;;;16.10;93.40;;;;;;8368166;28;19933;-76
2023/04/10 13:12:07;;;;;;;;;;;16.10;93.60;;;;;;8373380;28;19935;-75
2023/04/10 13:16:11;;;;;;;;;;;16.00;93.70;;;;;;8375069;28;19971;-76
2023/04/10 13:20:13;;;;;;;;;;;16.00;93.80;;;;;;8398346;28;20446;-76
2023/04/10 13:24:14;;;;;;;;;;;15.90;94.00;;;;;;8364752;28;19939;-76
2023/04/10 13:28:17;;;;;;;;;;;15.90;94.50;;;;;;8363496;28;19928;-76
2023/04/10 13:32:19;;;;;;;;;;;15.90;94.60;;;;;;8363148;28;19931;-76
2023/04/10 13:36:21;;;;;;;;;;;15.80;95.20;;;;;;8397498;28;20007;-76
2023/04/10 13:40:23;;;;;;;;;;;15.70;95.10;;;;;;8399185;27;19932;-76
2023/04/10 13:44:25;;;;;;;;;;;15.70;95.30;;;;;;8363402;28;19924;-76
2023/04/10 13:48:26;;;;;;;;;;;15.50;96.20;;;;;;8374309;28;20020;-76
2023/04/10 13:52:38;;;;;;;;;;;15.40;95.70;;;;;;8373233;28;19935;-76
2023/04/10 13:56:40;;;;;;;;;;;15.40;96.40;;;;;;8363915;28;19947;-76
2023/04/10 14:00:42;;;;;;;;;;;15.40;97.30;;;;;;8364148;28;19932;-76
2023/04/10 14:04:45;;;;;;;;;;;15.40;96.80;;;;;;8365790;28;19993;-76
2023/04/10 14:08:46;;;;;;;;;;;15.30;98.00;;;;;;8365344;28;19932;-76
2023/04/10 14:12:48;;;;;;;;;;;15.20;96.80;;;;;;8364425;28;19960;-76
2023/04/10 14:16:50;;;;;;;;;;;15.00;98.30;;;;;;8358591;28;19971;-75
2023/04/10 14:20:51;;;;;;;;;;;14.80;99.30;;;;;;8351824;28;19937;-76
2023/04/10 14:24:53;;;;;;;;;;;14.40;99.50;;;;;;8392899;28;19928;-76
2023/04/10 14:29:07;;;;;;;;;;;14.20;98.40;;;;;;8366342;28;19985;-76
2023/04/10 14:33:09;;;;;;;;;;;14.00;99.90;;;;;;8364770;28;19925;-76
2023/04/10 14:37:10;;;;;;;;;;;14.00;99.90;;;;;;8396098;28;19954;-76
2023/04/10 14:41:15;;;;;;;;;;;14.00;99.90;;;;;;8365051;28;20261;-76
2023/04/10 14:45:16;;;;;;;;;;;14.00;99.90;;;;;;8365370;28;19978;-76
2023/04/10 14:49:18;;;;;;;;;;;14.00;99.90;;;;;;8368068;28;20406;-76
2023/04/10 14:53:21;;;;;;;;;;;14.00;99.90;;;;;;8366203;28;20415;-76
2023/04/10 14:57:23;;;;;;;;;;;13.90;99.90;;;;;;8356058;28;20422;-76
2023/04/10 15:01:25;;;;;;;;;;;13.80;99.90;;;;;;8368936;28;19924;-76
2023/04/10 15:05:26;;;;;;;;;;;13.70;99.90;;;;;;8365779;28;20387;-76
2023/04/10 15:09:28;;;;;;;;;;;13.50;99.90;;;;;;8361417;28;19936;-77
2023/04/10 15:13:29;;;;;;;;;;;13.40;99.90;;;;;;8358453;28;19936;-76
2023/04/10 15:17:31;;;;;;;;;;;13.30;99.90;;;;;;8360590;28;19979;-77
2023/04/10 15:21:33;;;;;;;;;;;13.20;99.90;;;;;;8357614;28;19932;-76
2023/04/10 15:25:35;;;;;;;;;;;13.20;99.90;;;;;;8358977;28;19932;-76
2023/04/10 15:29:37;;;;;;;;;;;13.20;99.90;;;;;;8376658;28;20094;-76
2023/04/10 15:33:39;;;;;;;;;;;13.10;99.90;;;;;;8364475;28;20003;-76
2023/04/10 15:37:40;;;;;;;;;;;13.10;99.90;;;;;;8366038;28;20011;-76
2023/04/10 15:41:42;;;;;;;;;;;13.10;99.90;;;;;;8370719;28;19933;-77
2023/04/10 15:45:44;;;;;;;;;;;13.10;99.90;;;;;;8368006;28;19956;-76
2023/04/10 15:49:45;;;;;;;;;;;13.10;99.90;;;;;;8371834;28;19932;-76
2023/04/10 15:53:47;;;;;;;;;;;13.10;99.90;;;;;;8384577;28;19933;-77
2023/04/10 15:57:49;;;;;;;;;;;13.20;99.90;;;;;;8364312;28;20389;-77
2023/04/10 16:01:50;;;;;;;;;;;13.10;99.90;;;;;;8369427;28;19925;-77
2023/04/10 16:05:52;;;;;;;;;;;13.00;99.90;;;;;;8369767;28;19940;-76
2023/04/10 16:09:55;;;;;;;;;;;12.80;99.90;;;;;;8370633;28;19981;-76
2023/04/10 16:13:57;;;;;;;;;;;12.60;99.90;;;;;;8365917;28;20307;-76
2023/04/10 16:17:59;;;;;;;;;;;12.60;99.90;;;;;;8368148;28;19928;-77
2023/04/10 16:22:01;;;;;;;;;;;12.40;99.90;;;;;;8397214;28;19925;-76
2023/04/10 16:26:02;;;;;;;;;;;12.30;99.90;;;;;;8371672;28;19932;-76
2023/04/10 16:30:05;;;;;;;;;;;12.30;99.90;;;;;;8369519;28;20019;-76
2023/04/10 16:34:06;;;;;;;;;;;12.20;99.90;;;;;;8369663;28;19954;-77
2023/04/10 16:38:08;;;;;;;;;;;12.20;99.90;;;;;;8398910;28;20016;-76
2023/04/10 16:42:10;;;;;;;;;;;12.20;99.90;;;;;;8372207;28;19971;-77
2023/04/10 16:46:11;;;;;;;;;;;12.20;99.90;;;;;;8366649;28;19958;-76
2023/04/10 16:50:13;;;;;;;;;;;12.20;99.90;;;;;;8363381;28;20415;-77
2023/04/10 16:54:15;;;;;;;;;;;12.10;99.90;;;;;;8363125;28;20407;-75
2023/04/10 16:58:16;;;;;;;;;;;12.00;99.90;;;;;;8365708;28;19931;-75
2023/04/10 17:02:18;;;;;;;;;;;11.90;99.90;;;;;;8365603;28;20392;-75
2023/04/10 17:06:20;;;;;;;;;;;11.90;99.90;;;;;;8363285;28;19931;-74
2023/04/10 17:10:22;;;;;;;;;;;11.80;99.90;;;;;;8362556;28;20423;-75
2023/04/10 17:14:24;;;;;;;;;;;11.70;99.90;;;;;;8364487;28;20019;-76
2023/04/10 17:18:26;;;;;;;;;;;11.60;99.90;;;;;;8365076;28;19978;-74
2023/04/10 17:22:27;;;;;;;;;;;11.50;99.90;;;;;;8367827;28;20344;-76
2023/04/10 17:26:29;;;;;;;;;;;11.50;99.90;;;;;;8374909;28;19972;-75
2023/04/10 17:30:31;;;;;;;;;;;11.40;99.90;;;;;;8357693;28;20459;-75
2023/04/10 17:34:33;;;;;;;;;;;11.30;99.90;;;;;;8361231;28;19924;-76
2023/04/10 17:38:36;;;;;;;;;;;11.30;99.90;;;;;;8354595;28;19928;-76
2023/04/10 17:42:37;;;;;;;;;;;11.30;99.90;;;;;;8363597;28;20388;-76
2023/04/10 17:46:39;;;;;;;;;;;11.30;99.90;;;;;;8381617;28;19928;-76
2023/04/10 17:50:40;;;;;;;;;;;11.30;99.90;;;;;;8360528;28;21614;-76
2023/04/10 17:54:42;;;;;;;;;;;11.30;99.90;;;;;;8367344;28;19929;-76
2023/04/10 17:58:44;;;;;;;;;;;11.20;99.90;;;;;;8366655;28;19932;-76
2023/04/10 18:02:49;;;;;;;;;;;11.20;99.90;;;;;;8393468;28;20482;-75
2023/04/10 18:06:51;;;;;;;;;;;11.20;99.90;;;;;;8374603;28;19932;-76
2023/04/10 18:10:52;;;;;;;;;;;11.20;99.90;;;;;;8380975;28;20020;-76
2023/04/10 18:14:54;;;;;;;;;;;11.20;99.90;;;;;;8363835;28;19968;-75
2023/04/10 18:18:56;;;;;;;;;;;11.30;99.90;;;;;;8357504;28;19933;-76
2023/04/10 18:22:57;;;;;;;;;;;11.20;99.90;;;;;;8362349;28;19925;-75
2023/04/10 18:26:59;;;;;;;;;;;11.20;99.90;;;;;;8362536;28;19933;-75
2023/04/10 18:31:01;;;;;;;;;;;11.20;99.90;;;;;;8369116;28;19935;-75
2023/04/10 18:35:03;;;;;;;;;;;11.20;99.90;;;;;;8361079;28;20331;-75
2023/04/10 18:39:04;;;;;;;;;;;11.20;99.90;;;;;;8377710;28;19935;-75
2023/04/10 18:43:06;;;;;;;;;;;11.20;99.90;;;;;;8361777;28;20267;-76
2023/04/10 18:47:09;;;;;;;;;;;11.20;99.90;;;;;;8359819;28;19925;-75
2023/04/10 18:51:11;;;;;;;;;;;11.20;99.90;;;;;;8359131;28;19970;-75
2023/04/10 18:55:13;;;;;;;;;;;11.20;99.90;;;;;;8396260;28;19932;-75
2023/04/10 18:59:15;;;;;;;;;;;11.20;99.90;;;;;;8359681;28;20250;-75
2023/04/10 19:03:16;;;;;;;;;;;11.20;99.90;;;;;;8360044;28;19925;-76
2023/04/10 19:07:18;;;;;;;;;;;11.20;99.90;;;;;;8366194;28;19925;-75
2023/04/10 19:11:20;;;;;;;;;;;11.20;99.90;;;;;;8371918;28;20502;-75
2023/04/10 19:15:23;;;;;;;;;;;11.20;99.90;;;;;;8372829;28;19968;-75
2023/04/10 19:19:25;;;;;;;;;;;11.20;99.90;;;;;;8367888;28;19970;-75
2023/04/10 19:23:27;;;;;;;;;;;11.20;99.90;;;;;;8369840;28;19930;-75
2023/04/10 19:27:28;;;;;;;;;;;11.20;99.90;;;;;;8373596;28;19935;-75
2023/04/10 19:31:30;;;;;;;;;;;11.20;99.90;;;;;;8366931;28;19929;-75
2023/04/10 19:35:32;;;;;;;;;;;11.20;99.90;;;;;;8370396;28;19925;-75
2023/04/10 19:39:33;;;;;;;;;;;11.10;99.90;;;;;;8370164;28;20434;-75
2023/04/10 19:43:35;;;;;;;;;;;11.10;99.90;;;;;;8367227;28;19932;-75
2023/04/10 19:47:37;;;;;;;;;;;11.00;99.90;;;;;;8368385;28;19924;-75
2023/04/10 19:51:39;;;;;;;;;;;11.00;99.90;;;;;;8370910;28;19939;-75
2023/04/10 19:55:40;;;;;;;;;;;11.00;99.90;;;;;;8367694;28;19938;-74
2023/04/10 19:59:42;;;;;;;;;;;11.00;99.90;;;;;;8372284;28;19929;-75
2023/04/10 20:03:44;;;;;;;;;;;11.00;99.90;;;;;;8369453;28;19928;-75
2023/04/10 20:07:46;;;;;;;;;;;11.00;99.90;;;;;;8362669;28;20301;-75
2023/04/10 20:11:47;;;;;;;;;;;11.00;99.90;;;;;;8373490;28;19929;-75
2023/04/10 20:15:49;;;;;;;;;;;11.00;99.90;;;;;;8366860;28;19964;-76
2023/04/10 20:19:51;;;;;;;;;;;11.10;99.90;;;;;;8359470;28;19929;-75
2023/04/10 20:23:52;;;;;;;;;;;11.10;99.90;;;;;;8373586;28;19924;-75
2023/04/10 20:27:54;;;;;;;;;;;11.10;99.90;;;;;;8364276;28;19947;-75
2023/04/10 20:31:56;;;;;;;;;;;11.10;99.90;;;;;;8367172;28;20028;-75
2023/04/10 20:35:57;;;;;;;;;;;11.10;99.90;;;;;;8364862;28;20292;-75
2023/04/10 20:39:59;;;;;;;;;;;11.00;99.90;;;;;;8365300;28;19933;-75
2023/04/10 20:44:01;;;;;;;;;;;11.00;99.90;;;;;;8374889;28;19933;-75
2023/04/10 20:48:03;;;;;;;;;;;11.00;99.90;;;;;;8364979;28;19928;-75
2023/04/10 20:52:05;;;;;;;;;;;10.90;99.90;;;;;;8368777;28;20607;-75
2023/04/10 20:56:07;;;;;;;;;;;10.80;99.90;;;;;;8371037;28;19975;-76
2023/04/10 21:00:09;;;;;;;;;;;10.70;99.90;;;;;;8366870;28;19924;-76
2023/04/10 21:04:10;;;;;;;;;;;10.70;99.90;;;;;;8417862;28;20478;-75
2023/04/10 21:08:13;;;;;;;;;;;10.60;99.90;;;;;;8390000;28;19925;-75
2023/04/10 21:12:15;;;;;;;;;;;10.60;99.90;;;;;;8420036;28;20223;-75
2023/04/10 21:16:16;;;;;;;;;;;10.60;99.90;;;;;;8388409;28;19968;-75
2023/04/10 21:20:18;;;;;;;;;;;10.60;99.90;;;;;;8391374;28;20383;-75
2023/04/10 21:24:20;;;;;;;;;;;10.60;99.90;;;;;;8384408;28;19960;-75
2023/04/10 21:28:22;;;;;;;;;;;10.60;99.90;;;;;;8390219;28;19937;-75
2023/04/10 21:32:23;;;;;;;;;;;10.60;99.90;;;;;;8387208;28;19939;-75
2023/04/10 21:36:25;;;;;;;;;;;10.60;99.90;;;;;;8388975;28;21416;-75
2023/04/10 21:40:32;;;;;;;;;;;10.60;99.90;;;;;;8395574;28;19932;-75
2023/04/10 21:44:34;;;;;;;;;;;10.60;99.90;;;;;;8393896;28;19928;-74
2023/04/10 21:48:36;;;;;;;;;;;10.60;99.90;;;;;;8395779;28;19935;-75
2023/04/10 21:52:37;;;;;;;;;;;10.50;99.90;;;;;;8416005;27;19929;-75
2023/04/10 21:56:40;;;;;;;;;;;10.60;99.90;;;;;;8384681;28;19977;-75
2023/04/10 22:00:45;;;;;;;;;;;10.50;99.90;;;;;;8388618;28;19963;-75
2023/04/10 22:04:47;;;;;;;;;;;10.60;99.90;;;;;;8388431;28;19939;-75
2023/04/10 22:08:57;;;;;;;;;;;10.60;99.90;;;;;;8386949;28;20213;-75
2023/04/10 22:12:58;;;;;;;;;;;10.60;99.90;;;;;;8397230;28;19935;-75
2023/04/10 22:17:00;;;;;;;;;;;10.70;99.90;;;;;;8392191;28;19925;-75
2023/04/10 22:21:02;;;;;;;;;;;10.70;99.90;;;;;;8394724;28;20288;-75
2023/04/10 22:25:03;;;;;;;;;;;10.80;99.90;;;;;;8393313;28;20028;-76
2023/04/10 22:29:05;;;;;;;;;;;10.50;99.90;;;;;;8390231;28;20372;-76
2023/04/10 22:33:07;;;;;;;;;;;9.80;99.90;;;;;;8394426;28;19936;-76
2023/04/10 22:37:08;;;;;;;;;;;9.30;99.90;;;;;;8387198;28;19924;-76
2023/04/10 22:41:10;;;;;;;;;;;9.00;99.90;;;;;;8388068;28;20015;-76
2023/04/10 22:45:12;;;;;;;;;;;8.90;99.90;;;;;;8396934;28;20006;-76
2023/04/10 22:49:15;;;;;;;;;;;8.80;99.90;;;;;;8401235;28;19936;-76
2023/04/10 22:53:17;;;;;;;;;;;8.70;99.90;;;;;;8392899;28;20415;-76
2023/04/10 22:57:19;;;;;;;;;;;8.70;99.90;;;;;;8398121;28;19939;-76
2023/04/10 23:01:20;;;;;;;;;;;8.60;99.90;;;;;;8391170;28;19932;-76
2023/04/10 23:05:22;;;;;;;;;;;8.50;99.90;;;;;;8393550;28;19929;-76
2023/04/10 23:09:24;;;;;;;;;;;8.50;99.90;;;;;;8395208;28;19924;-76
2023/04/10 23:13:26;;;;;;;;;;;8.40;99.90;;;;;;8399189;28;19960;-76
2023/04/10 23:17:27;;;;;;;;;;;8.40;99.90;;;;;;8392483;28;19971;-76
2023/04/10 23:21:30;;;;;;;;;;;8.30;99.90;;;;;;8408429;28;19932;-75
2023/04/10 23:25:32;;;;;;;;;;;8.20;99.90;;;;;;8393611;28;20433;-76
2023/04/10 23:29:33;;;;;;;;;;;8.10;99.90;;;;;;8396521;28;19928;-75
2023/04/10 23:33:35;;;;;;;;;;;8.00;99.90;;;;;;8386536;28;19931;-76
2023/04/10 23:37:36;;;;;;;;;;;7.90;99.90;;;;;;8395164;28;19967;-75
2023/04/10 23:41:38;;;;;;;;;;;7.90;99.90;;;;;;8387835;28;19935;-75
2023/04/10 23:45:40;;;;;;;;;;;7.90;99.90;;;;;;8394093;28;19924;-75
2023/04/10 23:49:41;;;;;;;;;;;8.00;99.90;;;;;;8401020;28;19929;-75
2023/04/10 23:53:43;;;;;;;;;;;8.10;99.90;;;;;;8402530;28;20299;-75
2023/04/10 23:57:45;;;;;;;;;;;8.20;99.90;;;;;;8397083;28;20392;-75
